sensor_id;sensor_type;location;lat;lon;timestamp;pressure;altitude;pressure_sealevel;temperature;humidity
82784;BME280;72520;55.762;37.780;2024-03-25T00:02:51;98164.97;;;6.52;74.64
82784;BME280;72520;55.762;37.780;2024-03-25T00:05:52;98174.56;;;6.42;74.18
82784;BME280;72520;55.762;37.780;2024-03-25T00:08:56;98190.13;;;6.34;72.51
82784;BME280;72520;55.762;37.780;2024-03-25T00:11:57;98189.34;;;6.21;71.39
82784;BME280;72520;55.762;37.780;2024-03-25T00:15:00;98212.41;;;6.19;69.85
82784;BME280;72520;55.762;37.780;2024-03-25T00:18:01;98225.22;;;6.12;69.42
82784;BME280;72520;55.762;37.780;2024-03-25T00:21:03;98219.34;;;5.96;69.77
82784;BME280;72520;55.762;37.780;2024-03-25T00:24:07;98235.75;;;5.88;69.37
82784;BME280;72520;55.762;37.780;2024-03-25T00:27:11;98241.03;;;5.88;69.49
82784;BME280;72520;55.762;37.780;2024-03-25T00:30:16;98247.56;;;5.83;70.95
82784;BME280;72520;55.762;37.780;2024-03-25T00:33:17;98248.41;;;5.83;70.75
82784;BME280;72520;55.762;37.780;2024-03-25T00:36:19;98239.66;;;5.70;70.10
82784;BME280;72520;55.762;37.780;2024-03-25T00:39:26;98253.38;;;5.75;71.07
82784;BME280;72520;55.762;37.780;2024-03-25T00:42:28;98256.66;;;5.66;70.15
82784;BME280;72520;55.762;37.780;2024-03-25T00:45:30;98264.63;;;5.53;68.43
82784;BME280;72520;55.762;37.780;2024-03-25T00:48:32;98269.34;;;5.86;70.39
82784;BME280;72520;55.762;37.780;2024-03-25T00:51:33;98269.75;;;5.80;66.65
82784;BME280;72520;55.762;37.780;2024-03-25T00:54:37;98266.56;;;5.75;67.31
82784;BME280;72520;55.762;37.780;2024-03-25T00:57:40;98285.91;;;5.76;67.50
82784;BME280;72520;55.762;37.780;2024-03-25T01:00:41;98288.31;;;6.04;68.07
82784;BME280;72520;55.762;37.780;2024-03-25T01:03:44;98294.97;;;5.72;69.03
82784;BME280;72520;55.762;37.780;2024-03-25T01:06:45;98299.56;;;5.57;67.05
82784;BME280;72520;55.762;37.780;2024-03-25T01:09:48;98307.44;;;5.82;66.93
82784;BME280;72520;55.762;37.780;2024-03-25T01:12:53;98309.34;;;5.55;66.72
82784;BME280;72520;55.762;37.780;2024-03-25T01:15:55;98319.69;;;5.33;67.67
82784;BME280;72520;55.762;37.780;2024-03-25T01:18:59;98306.72;;;5.17;67.83
82784;BME280;72520;55.762;37.780;2024-03-25T01:22:02;98330.47;;;5.17;67.48
82784;BME280;72520;55.762;37.780;2024-03-25T01:25:08;98339.16;;;5.05;68.95
82784;BME280;72520;55.762;37.780;2024-03-25T01:28:10;98337.34;;;5.57;67.14
82784;BME280;72520;55.762;37.780;2024-03-25T01:31:13;98331.41;;;5.67;65.17
82784;BME280;72520;55.762;37.780;2024-03-25T01:34:19;98337.31;;;5.45;66.20
82784;BME280;72520;55.762;37.780;2024-03-25T01:37:20;98329.53;;;5.43;66.89
82784;BME280;72520;55.762;37.780;2024-03-25T01:40:24;98328.03;;;5.39;66.92
82784;BME280;72520;55.762;37.780;2024-03-25T01:43:30;98336.09;;;5.88;66.47
82784;BME280;72520;55.762;37.780;2024-03-25T01:46:32;98327.59;;;5.83;64.84
82784;BME280;72520;55.762;37.780;2024-03-25T01:49:35;98330.06;;;5.61;65.22
82784;BME280;72520;55.762;37.780;2024-03-25T01:52:39;98343.00;;;5.26;67.24
82784;BME280;72520;55.762;37.780;2024-03-25T01:55:46;98357.44;;;5.21;68.27
82784;BME280;72520;55.762;37.780;2024-03-25T01:58:50;98363.31;;;4.99;68.04
82784;BME280;72520;55.762;37.780;2024-03-25T02:01:53;98363.84;;;5.04;67.97
82784;BME280;72520;55.762;37.780;2024-03-25T02:05:01;98365.53;;;5.05;68.64
82784;BME280;72520;55.762;37.780;2024-03-25T02:08:06;98369.22;;;5.02;69.00
82784;BME280;72520;55.762;37.780;2024-03-25T02:11:11;98377.56;;;4.96;68.70
82784;BME280;72520;55.762;37.780;2024-03-25T02:14:17;98385.03;;;4.90;70.17
82784;BME280;72520;55.762;37.780;2024-03-25T02:17:23;98379.38;;;4.82;69.00
82784;BME280;72520;55.762;37.780;2024-03-25T02:20:24;98387.50;;;4.79;69.32
82784;BME280;72520;55.762;37.780;2024-03-25T02:23:28;98385.63;;;4.67;69.27
82784;BME280;72520;55.762;37.780;2024-03-25T02:26:31;98393.69;;;4.51;69.91
82784;BME280;72520;55.762;37.780;2024-03-25T02:29:33;98396.59;;;4.46;69.86
82784;BME280;72520;55.762;37.780;2024-03-25T02:32:35;98398.63;;;4.70;70.04
82784;BME280;72520;55.762;37.780;2024-03-25T02:35:41;98397.47;;;5.00;68.94
82784;BME280;72520;55.762;37.780;2024-03-25T02:38:44;98405.78;;;4.94;67.39
82784;BME280;72520;55.762;37.780;2024-03-25T02:41:50;98422.00;;;4.88;66.45
82784;BME280;72520;55.762;37.780;2024-03-25T02:44:52;98431.47;;;4.78;68.32
82784;BME280;72520;55.762;37.780;2024-03-25T02:47:56;98431.22;;;4.69;68.02
82784;BME280;72520;55.762;37.780;2024-03-25T02:50:58;98437.50;;;4.66;68.12
82784;BME280;72520;55.762;37.780;2024-03-25T02:54:00;98447.22;;;4.66;68.12
82784;BME280;72520;55.762;37.780;2024-03-25T02:57:02;98455.56;;;4.72;68.81
82784;BME280;72520;55.762;37.780;2024-03-25T03:00:08;98467.25;;;4.68;69.36
82784;BME280;72520;55.762;37.780;2024-03-25T03:03:10;98467.63;;;4.62;69.95
82784;BME280;72520;55.762;37.780;2024-03-25T03:06:12;98471.59;;;4.55;69.62
82784;BME280;72520;55.762;37.780;2024-03-25T03:09:14;98464.91;;;4.49;69.96
82784;BME280;72520;55.762;37.780;2024-03-25T03:12:18;98470.09;;;4.51;69.78
82784;BME280;72520;55.762;37.780;2024-03-25T03:15:19;98471.41;;;4.44;70.15
82784;BME280;72520;55.762;37.780;2024-03-25T03:18:24;98472.47;;;4.41;69.32
82784;BME280;72520;55.762;37.780;2024-03-25T03:21:28;98486.47;;;4.42;69.96
82784;BME280;72520;55.762;37.780;2024-03-25T03:24:31;98483.84;;;4.42;70.25
82784;BME280;72520;55.762;37.780;2024-03-25T03:27:34;98477.25;;;4.35;69.91
82784;BME280;72520;55.762;37.780;2024-03-25T03:30:39;98487.41;;;4.27;70.21
82784;BME280;72520;55.762;37.780;2024-03-25T03:33:41;98497.75;;;4.30;71.81
82784;BME280;72520;55.762;37.780;2024-03-25T03:36:43;98510.56;;;4.22;71.82
82784;BME280;72520;55.762;37.780;2024-03-25T03:39:52;98500.00;;;4.78;69.56
82784;BME280;72520;55.762;37.780;2024-03-25T03:42:57;98505.56;;;5.00;66.69
82784;BME280;72520;55.762;37.780;2024-03-25T03:46:00;98513.16;;;4.92;66.63
82784;BME280;72520;55.762;37.780;2024-03-25T03:49:01;98513.25;;;4.77;66.30
82784;BME280;72520;55.762;37.780;2024-03-25T03:52:03;98522.97;;;4.62;68.20
82784;BME280;72520;55.762;37.780;2024-03-25T03:55:08;98521.47;;;4.58;68.24
82784;BME280;72520;55.762;37.780;2024-03-25T03:58:12;98527.78;;;4.55;68.04
82784;BME280;72520;55.762;37.780;2024-03-25T04:01:16;98533.78;;;4.57;67.72
82784;BME280;72520;55.762;37.780;2024-03-25T04:04:22;98536.88;;;4.50;68.15
82784;BME280;72520;55.762;37.780;2024-03-25T04:07:23;98537.28;;;4.58;67.37
82784;BME280;72520;55.762;37.780;2024-03-25T04:10:33;98542.94;;;4.52;68.66
82784;BME280;72520;55.762;37.780;2024-03-25T04:13:35;98554.66;;;4.46;68.62
82784;BME280;72520;55.762;37.780;2024-03-25T04:16:38;98548.75;;;4.43;68.78
82784;BME280;72520;55.762;37.780;2024-03-25T04:19:39;98555.72;;;4.58;67.50
82784;BME280;72520;55.762;37.780;2024-03-25T04:22:43;98563.91;;;4.53;67.13
82784;BME280;72520;55.762;37.780;2024-03-25T04:25:44;98561.53;;;4.77;66.33
82784;BME280;72520;55.762;37.780;2024-03-25T04:28:48;98564.94;;;4.79;65.91
82784;BME280;72520;55.762;37.780;2024-03-25T04:31:52;98573.53;;;4.69;66.27
82784;BME280;72520;55.762;37.780;2024-03-25T04:34:56;98582.81;;;4.74;66.43
82784;BME280;72520;55.762;37.780;2024-03-25T04:37:58;98586.59;;;4.70;67.29
82784;BME280;72520;55.762;37.780;2024-03-25T04:40:59;98588.09;;;4.74;67.13
82784;BME280;72520;55.762;37.780;2024-03-25T04:44:02;98603.84;;;4.90;65.92
82784;BME280;72520;55.762;37.780;2024-03-25T04:47:03;98609.19;;;4.88;65.46
82784;BME280;72520;55.762;37.780;2024-03-25T04:50:05;98611.44;;;4.80;64.73
82784;BME280;72520;55.762;37.780;2024-03-25T04:53:10;98625.09;;;4.87;66.11
82784;BME280;72520;55.762;37.780;2024-03-25T04:56:10;98631.66;;;4.80;66.81
82784;BME280;72520;55.762;37.780;2024-03-25T04:59:16;98626.41;;;4.80;66.72
82784;BME280;72520;55.762;37.780;2024-03-25T05:02:18;98636.09;;;4.65;66.92
82784;BME280;72520;55.762;37.780;2024-03-25T05:05:19;98633.84;;;4.59;66.63
82784;BME280;72520;55.762;37.780;2024-03-25T05:08:20;98646.72;;;4.63;66.44
82784;BME280;72520;55.762;37.780;2024-03-25T05:11:21;98647.41;;;4.81;65.70
82784;BME280;72520;55.762;37.780;2024-03-25T05:14:27;98654.66;;;4.78;66.06
82784;BME280;72520;55.762;37.780;2024-03-25T05:17:28;98664.44;;;4.76;66.10
82784;BME280;72520;55.762;37.780;2024-03-25T05:20:30;98667.09;;;4.90;64.87
82784;BME280;72520;55.762;37.780;2024-03-25T05:23:31;98663.63;;;5.03;64.18
82784;BME280;72520;55.762;37.780;2024-03-25T05:26:35;98672.75;;;4.98;64.85
82784;BME280;72520;55.762;37.780;2024-03-25T05:29:37;98672.94;;;4.95;65.74
82784;BME280;72520;55.762;37.780;2024-03-25T05:32:41;98683.38;;;5.10;64.58
82784;BME280;72520;55.762;37.780;2024-03-25T05:35:45;98686.13;;;5.09;64.48
82784;BME280;72520;55.762;37.780;2024-03-25T05:38:47;98688.00;;;5.21;64.66
82784;BME280;72520;55.762;37.780;2024-03-25T05:41:48;98688.09;;;5.34;63.81
82784;BME280;72520;55.762;37.780;2024-03-25T05:44:51;98684.88;;;5.57;61.62
82784;BME280;72520;55.762;37.780;2024-03-25T05:47:52;98682.72;;;6.04;60.28
82784;BME280;72520;55.762;37.780;2024-03-25T05:51:00;98691.81;;;6.13;60.66
82784;BME280;72520;55.762;37.780;2024-03-25T05:54:01;98699.97;;;6.49;60.19
82784;BME280;72520;55.762;37.780;2024-03-25T05:57:03;98707.06;;;6.61;59.13
82784;BME280;72520;55.762;37.780;2024-03-25T06:00:07;98709.56;;;6.50;59.92
82784;BME280;72520;55.762;37.780;2024-03-25T06:03:09;98717.41;;;6.52;58.60
82784;BME280;72520;55.762;37.780;2024-03-25T06:06:10;98736.34;;;6.46;59.51
82784;BME280;72520;55.762;37.780;2024-03-25T06:09:12;98723.38;;;6.29;61.33
82784;BME280;72520;55.762;37.780;2024-03-25T06:12:13;98725.78;;;6.58;61.44
82784;BME280;72520;55.762;37.780;2024-03-25T06:15:15;98730.06;;;6.86;59.85
82784;BME280;72520;55.762;37.780;2024-03-25T06:18:19;98744.69;;;6.92;59.38
82784;BME280;72520;55.762;37.780;2024-03-25T06:21:20;98748.50;;;7.00;58.90
82784;BME280;72520;55.762;37.780;2024-03-25T06:24:21;98753.28;;;7.46;57.21
82784;BME280;72520;55.762;37.780;2024-03-25T06:27:40;98750.13;;;7.90;55.02
82784;BME280;72520;55.762;37.780;2024-03-25T06:30:45;98761.84;;;7.75;55.11
82784;BME280;72520;55.762;37.780;2024-03-25T06:34:04;98768.94;;;7.36;55.91
82784;BME280;72520;55.762;37.780;2024-03-25T06:37:23;98768.84;;;7.38;57.44
82784;BME280;72520;55.762;37.780;2024-03-25T06:40:24;98769.81;;;7.37;56.92
82784;BME280;72520;55.762;37.780;2024-03-25T06:43:25;98771.47;;;7.63;56.32
82784;BME280;72520;55.762;37.780;2024-03-25T06:46:28;98786.63;;;7.74;56.48
82784;BME280;72520;55.762;37.780;2024-03-25T06:49:29;98786.09;;;7.81;56.90
82784;BME280;72520;55.762;37.780;2024-03-25T06:52:32;98780.84;;;8.05;54.81
82784;BME280;72520;55.762;37.780;2024-03-25T06:55:33;98788.22;;;8.25;53.92
82784;BME280;72520;55.762;37.780;2024-03-25T06:58:40;98790.38;;;8.44;53.24
82784;BME280;72520;55.762;37.780;2024-03-25T07:01:44;98793.72;;;8.35;52.92
82784;BME280;72520;55.762;37.780;2024-03-25T07:04:46;98791.38;;;8.43;53.67
82784;BME280;72520;55.762;37.780;2024-03-25T07:07:47;98811.41;;;8.47;53.91
82784;BME280;72520;55.762;37.780;2024-03-25T07:10:48;98817.81;;;8.32;54.04
82784;BME280;72520;55.762;37.780;2024-03-25T07:13:49;98820.28;;;7.97;55.00
82784;BME280;72520;55.762;37.780;2024-03-25T07:16:52;98835.00;;;8.01;55.02
82784;BME280;72520;55.762;37.780;2024-03-25T07:19:54;98835.47;;;7.82;55.07
82784;BME280;72520;55.762;37.780;2024-03-25T07:23:13;98832.69;;;7.96;54.48
82784;BME280;72520;55.762;37.780;2024-03-25T07:26:15;98841.78;;;8.17;55.34
82784;BME280;72520;55.762;37.780;2024-03-25T07:29:16;98847.72;;;8.08;55.24
82784;BME280;72520;55.762;37.780;2024-03-25T07:32:21;98846.47;;;7.76;53.85
82784;BME280;72520;55.762;37.780;2024-03-25T07:35:25;98847.00;;;7.81;57.28
82784;BME280;72520;55.762;37.780;2024-03-25T07:38:29;98857.63;;;7.68;57.12
82784;BME280;72520;55.762;37.780;2024-03-25T07:41:30;98862.38;;;7.76;55.88
82784;BME280;72520;55.762;37.780;2024-03-25T07:44:32;98866.84;;;7.76;56.72
82784;BME280;72520;55.762;37.780;2024-03-25T07:47:34;98868.31;;;7.67;55.08
82784;BME280;72520;55.762;37.780;2024-03-25T07:50:37;98870.53;;;7.60;55.66
82784;BME280;72520;55.762;37.780;2024-03-25T07:53:38;98876.69;;;7.48;56.78
82784;BME280;72520;55.762;37.780;2024-03-25T07:56:40;98889.28;;;7.70;57.25
82784;BME280;72520;55.762;37.780;2024-03-25T07:59:41;98878.78;;;7.56;59.81
82784;BME280;72520;55.762;37.780;2024-03-25T08:02:49;98888.63;;;7.54;57.67
82784;BME280;72520;55.762;37.780;2024-03-25T08:05:50;98893.63;;;7.71;55.38
82784;BME280;72520;55.762;37.780;2024-03-25T08:08:51;98893.97;;;7.92;54.66
82784;BME280;72520;55.762;37.780;2024-03-25T08:11:53;98897.13;;;7.84;54.94
82784;BME280;72520;55.762;37.780;2024-03-25T08:14:54;98889.28;;;7.83;55.36
82784;BME280;72520;55.762;37.780;2024-03-25T08:17:58;98892.16;;;7.92;54.21
82784;BME280;72520;55.762;37.780;2024-03-25T08:20:59;98893.72;;;8.20;54.67
82784;BME280;72520;55.762;37.780;2024-03-25T08:24:00;98888.50;;;8.44;52.35
82784;BME280;72520;55.762;37.780;2024-03-25T08:27:04;98885.16;;;8.65;53.04
82784;BME280;72520;55.762;37.780;2024-03-25T08:30:07;98888.91;;;8.63;52.52
82784;BME280;72520;55.762;37.780;2024-03-25T08:33:09;98898.09;;;8.70;52.96
82784;BME280;72520;55.762;37.780;2024-03-25T08:36:11;98891.41;;;8.64;51.81
82784;BME280;72520;55.762;37.780;2024-03-25T08:39:12;98900.00;;;8.68;52.92
82784;BME280;72520;55.762;37.780;2024-03-25T08:42:15;98898.44;;;8.65;51.68
82784;BME280;72520;55.762;37.780;2024-03-25T08:45:16;98896.09;;;8.61;52.24
82784;BME280;72520;55.762;37.780;2024-03-25T08:48:21;98896.22;;;8.59;51.18
82784;BME280;72520;55.762;37.780;2024-03-25T08:51:23;98900.00;;;9.04;51.82
82784;BME280;72520;55.762;37.780;2024-03-25T08:54:26;98901.09;;;9.37;51.23
82784;BME280;72520;55.762;37.780;2024-03-25T08:57:28;98905.97;;;10.11;50.27
82784;BME280;72520;55.762;37.780;2024-03-25T09:00:29;98900.47;;;10.47;47.62
82784;BME280;72520;55.762;37.780;2024-03-25T09:03:31;98910.72;;;10.74;46.33
82784;BME280;72520;55.762;37.780;2024-03-25T09:06:33;98903.84;;;10.60;49.15
82784;BME280;72520;55.762;37.780;2024-03-25T09:09:34;98912.53;;;10.62;49.08
82784;BME280;72520;55.762;37.780;2024-03-25T09:12:53;98925.13;;;10.38;47.96
82784;BME280;72520;55.762;37.780;2024-03-25T09:15:55;98919.66;;;10.84;47.10
82784;BME280;72520;55.762;37.780;2024-03-25T09:19:01;98921.16;;;10.44;45.59
82784;BME280;72520;55.762;37.780;2024-03-25T09:22:02;98928.34;;;10.08;46.96
82784;BME280;72520;55.762;37.780;2024-03-25T09:25:04;98929.25;;;9.85;48.74
82784;BME280;72520;55.762;37.780;2024-03-25T09:28:05;98941.81;;;9.83;47.62
82784;BME280;72520;55.762;37.780;2024-03-25T09:31:06;98938.88;;;9.64;48.57
82784;BME280;72520;55.762;37.780;2024-03-25T09:34:11;98933.44;;;9.65;49.20
82784;BME280;72520;55.762;37.780;2024-03-25T09:37:16;98946.81;;;9.99;48.97
82784;BME280;72520;55.762;37.780;2024-03-25T09:40:17;98951.56;;;10.06;49.00
82784;BME280;72520;55.762;37.780;2024-03-25T09:43:23;98955.72;;;9.76;47.71
82784;BME280;72520;55.762;37.780;2024-03-25T09:46:26;98947.59;;;9.66;48.43
82784;BME280;72520;55.762;37.780;2024-03-25T09:49:32;98957.41;;;9.53;51.87
82784;BME280;72520;55.762;37.780;2024-03-25T09:52:33;98944.59;;;9.23;49.39
82784;BME280;72520;55.762;37.780;2024-03-25T09:55:40;98957.75;;;9.72;49.79
82784;BME280;72520;55.762;37.780;2024-03-25T09:58:44;98952.91;;;9.77;47.17
82784;BME280;72520;55.762;37.780;2024-03-25T10:01:45;98962.34;;;9.81;48.49
82784;BME280;72520;55.762;37.780;2024-03-25T10:04:48;98959.50;;;9.95;47.99
82784;BME280;72520;55.762;37.780;2024-03-25T10:07:49;98951.75;;;10.60;47.82
82784;BME280;72520;55.762;37.780;2024-03-25T10:11:09;98956.94;;;10.51;47.24
82784;BME280;72520;55.762;37.780;2024-03-25T10:14:11;98957.47;;;10.10;47.17
82784;BME280;72520;55.762;37.780;2024-03-25T10:17:12;98960.50;;;9.70;47.14
82784;BME280;72520;55.762;37.780;2024-03-25T10:20:18;98959.69;;;9.23;51.04
82784;BME280;72520;55.762;37.780;2024-03-25T10:23:20;98965.34;;;8.82;50.44
82784;BME280;72520;55.762;37.780;2024-03-25T10:26:28;98955.19;;;8.76;51.39
82784;BME280;72520;55.762;37.780;2024-03-25T10:29:29;98955.31;;;8.61;52.09
82784;BME280;72520;55.762;37.780;2024-03-25T10:32:33;98963.94;;;8.52;50.48
82784;BME280;72520;55.762;37.780;2024-03-25T10:35:47;98966.69;;;8.51;50.45
82784;BME280;72520;55.762;37.780;2024-03-25T10:38:54;98964.16;;;8.49;51.11
82784;BME280;72520;55.762;37.780;2024-03-25T10:42:01;98960.88;;;8.46;52.49
82784;BME280;72520;55.762;37.780;2024-03-25T10:45:04;98959.00;;;8.72;50.38
82784;BME280;72520;55.762;37.780;2024-03-25T10:48:11;98956.84;;;8.89;50.77
82784;BME280;72520;55.762;37.780;2024-03-25T10:51:19;98949.63;;;8.91;50.36
82784;BME280;72520;55.762;37.780;2024-03-25T10:54:24;98969.38;;;8.75;48.70
82784;BME280;72520;55.762;37.780;2024-03-25T10:57:25;98972.63;;;8.67;48.88
82784;BME280;72520;55.762;37.780;2024-03-25T11:00:27;98972.41;;;8.57;49.73
82784;BME280;72520;55.762;37.780;2024-03-25T11:03:29;98973.88;;;8.61;50.25
82784;BME280;72520;55.762;37.780;2024-03-25T11:06:34;98974.72;;;8.62;49.71
82784;BME280;72520;55.762;37.780;2024-03-25T11:09:35;98973.03;;;8.74;48.94
82784;BME280;72520;55.762;37.780;2024-03-25T11:12:42;98983.88;;;8.45;50.02
82784;BME280;72520;55.762;37.780;2024-03-25T11:15:44;98980.47;;;8.31;50.83
82784;BME280;72520;55.762;37.780;2024-03-25T11:18:51;98975.94;;;8.33;50.61
82784;BME280;72520;55.762;37.780;2024-03-25T11:21:54;98979.41;;;8.58;49.53
82784;BME280;72520;55.762;37.780;2024-03-25T11:24:56;98987.38;;;8.46;50.13
82784;BME280;72520;55.762;37.780;2024-03-25T11:27:57;98979.81;;;8.27;50.24
82784;BME280;72520;55.762;37.780;2024-03-25T11:30:58;98976.66;;;8.22;50.92
82784;BME280;72520;55.762;37.780;2024-03-25T11:34:03;98993.75;;;8.43;49.75
82784;BME280;72520;55.762;37.780;2024-03-25T11:37:25;98989.41;;;8.42;51.24
82784;BME280;72520;55.762;37.780;2024-03-25T11:40:29;98985.00;;;9.15;48.97
82784;BME280;72520;55.762;37.780;2024-03-25T11:43:30;98986.34;;;9.68;48.35
82784;BME280;72520;55.762;37.780;2024-03-25T11:46:31;98991.25;;;9.86;47.72
82784;BME280;72520;55.762;37.780;2024-03-25T11:49:38;98984.91;;;10.67;45.53
82784;BME280;72520;55.762;37.780;2024-03-25T11:52:47;98989.69;;;10.51;44.59
82784;BME280;72520;55.762;37.780;2024-03-25T11:55:48;98991.66;;;10.49;45.62
82784;BME280;72520;55.762;37.780;2024-03-25T11:58:56;98997.47;;;10.43;44.67
82784;BME280;72520;55.762;37.780;2024-03-25T12:01:59;98998.75;;;10.38;46.13
82784;BME280;72520;55.762;37.780;2024-03-25T12:05:01;99000.91;;;10.21;46.75
82784;BME280;72520;55.762;37.780;2024-03-25T12:08:05;98990.31;;;9.63;47.05
82784;BME280;72520;55.762;37.780;2024-03-25T12:11:08;99000.28;;;9.25;47.83
82784;BME280;72520;55.762;37.780;2024-03-25T12:14:21;98998.25;;;9.28;47.32
82784;BME280;72520;55.762;37.780;2024-03-25T12:17:23;98998.41;;;9.96;46.31
82784;BME280;72520;55.762;37.780;2024-03-25T12:20:27;98997.00;;;10.03;47.03
82784;BME280;72520;55.762;37.780;2024-03-25T12:23:31;99004.72;;;10.06;46.40
82784;BME280;72520;55.762;37.780;2024-03-25T12:26:33;99008.06;;;9.86;46.08
82784;BME280;72520;55.762;37.780;2024-03-25T12:29:34;99012.66;;;10.19;47.20
82784;BME280;72520;55.762;37.780;2024-03-25T12:32:38;99015.72;;;10.59;46.28
82784;BME280;72520;55.762;37.780;2024-03-25T12:35:40;99011.97;;;10.50;46.51
82784;BME280;72520;55.762;37.780;2024-03-25T12:38:43;99016.09;;;10.54;44.81
82784;BME280;72520;55.762;37.780;2024-03-25T12:42:04;99013.13;;;10.24;44.47
82784;BME280;72520;55.762;37.780;2024-03-25T12:45:05;99013.84;;;9.91;45.74
82784;BME280;72520;55.762;37.780;2024-03-25T12:48:07;99007.69;;;9.56;46.34
82784;BME280;72520;55.762;37.780;2024-03-25T12:51:13;99005.41;;;9.62;47.43
82784;BME280;72520;55.762;37.780;2024-03-25T12:54:16;99006.84;;;9.55;46.24
82784;BME280;72520;55.762;37.780;2024-03-25T12:57:17;99010.50;;;9.42;47.37
82784;BME280;72520;55.762;37.780;2024-03-25T13:00:18;99011.56;;;9.63;47.08
82784;BME280;72520;55.762;37.780;2024-03-25T13:03:20;99019.88;;;9.82;46.24
82784;BME280;72520;55.762;37.780;2024-03-25T13:06:21;99017.03;;;9.96;46.65
82784;BME280;72520;55.762;37.780;2024-03-25T13:09:24;99000.88;;;9.76;45.36
82784;BME280;72520;55.762;37.780;2024-03-25T13:12:26;99007.25;;;9.49;46.08
82784;BME280;72520;55.762;37.780;2024-03-25T13:15:27;99012.53;;;9.38;46.71
82784;BME280;72520;55.762;37.780;2024-03-25T13:18:28;99018.63;;;9.28;47.33
82784;BME280;72520;55.762;37.780;2024-03-25T13:21:30;99008.72;;;9.30;47.31
82784;BME280;72520;55.762;37.780;2024-03-25T13:24:33;99004.19;;;9.32;47.23
82784;BME280;72520;55.762;37.780;2024-03-25T13:27:34;99001.94;;;9.26;47.62
82784;BME280;72520;55.762;37.780;2024-03-25T13:30:36;98997.66;;;9.36;46.69
82784;BME280;72520;55.762;37.780;2024-03-25T13:33:39;98998.25;;;9.28;46.53
82784;BME280;72520;55.762;37.780;2024-03-25T13:36:48;99005.44;;;9.39;46.51
82784;BME280;72520;55.762;37.780;2024-03-25T13:39:59;99010.09;;;9.11;47.83
82784;BME280;72520;55.762;37.780;2024-03-25T13:43:01;99005.06;;;9.19;46.29
82784;BME280;72520;55.762;37.780;2024-03-25T13:46:03;99011.25;;;9.07;48.66
82784;BME280;72520;55.762;37.780;2024-03-25T13:49:06;99000.09;;;9.15;48.11
82784;BME280;72520;55.762;37.780;2024-03-25T13:52:10;99007.94;;;9.16;47.22
82784;BME280;72520;55.762;37.780;2024-03-25T13:55:13;99010.22;;;8.97;48.41
82784;BME280;72520;55.762;37.780;2024-03-25T13:58:14;99019.19;;;8.84;47.85
82784;BME280;72520;55.762;37.780;2024-03-25T14:01:15;99023.34;;;8.62;47.99
82784;BME280;72520;55.762;37.780;2024-03-25T14:04:17;99026.09;;;8.74;48.38
82784;BME280;72520;55.762;37.780;2024-03-25T14:07:21;99018.44;;;8.69;49.12
82784;BME280;72520;55.762;37.780;2024-03-25T14:10:24;99018.19;;;8.85;49.29
82784;BME280;72520;55.762;37.780;2024-03-25T14:13:26;99016.16;;;9.01;47.99
82784;BME280;72520;55.762;37.780;2024-03-25T14:16:28;99017.19;;;9.11;47.71
82784;BME280;72520;55.762;37.780;2024-03-25T14:19:29;99024.88;;;8.90;48.74
82784;BME280;72520;55.762;37.780;2024-03-25T14:22:36;99021.31;;;8.66;47.71
82784;BME280;72520;55.762;37.780;2024-03-25T14:25:40;99020.47;;;8.65;49.50
82784;BME280;72520;55.762;37.780;2024-03-25T14:28:42;99019.63;;;8.52;50.56
82784;BME280;72520;55.762;37.780;2024-03-25T14:31:46;99021.41;;;8.27;52.43
82784;BME280;72520;55.762;37.780;2024-03-25T14:34:49;99021.16;;;8.17;50.54
82784;BME280;72520;55.762;37.780;2024-03-25T14:37:50;99019.56;;;8.14;52.68
82784;BME280;72520;55.762;37.780;2024-03-25T14:40:54;99029.66;;;8.09;51.90
82784;BME280;72520;55.762;37.780;2024-03-25T14:43:55;99030.81;;;8.05;52.64
82784;BME280;72520;55.762;37.780;2024-03-25T14:46:56;99041.63;;;8.02;52.60
82784;BME280;72520;55.762;37.780;2024-03-25T14:49:58;99047.00;;;8.01;51.90
82784;BME280;72520;55.762;37.780;2024-03-25T14:52:59;99045.72;;;7.94;51.72
82784;BME280;72520;55.762;37.780;2024-03-25T14:56:02;99043.63;;;7.99;51.34
82784;BME280;72520;55.762;37.780;2024-03-25T14:59:03;99042.97;;;7.95;53.53
82784;BME280;72520;55.762;37.780;2024-03-25T15:02:06;99044.34;;;7.88;51.75
82784;BME280;72520;55.762;37.780;2024-03-25T15:05:07;99049.94;;;7.84;54.38
82784;BME280;72520;55.762;37.780;2024-03-25T15:08:09;99051.72;;;7.83;52.66
82784;BME280;72520;55.762;37.780;2024-03-25T15:11:12;99053.69;;;7.67;55.03
82784;BME280;72520;55.762;37.780;2024-03-25T15:14:13;99054.84;;;7.63;52.51
82784;BME280;72520;55.762;37.780;2024-03-25T15:17:14;99052.19;;;7.63;53.72
82784;BME280;72520;55.762;37.780;2024-03-25T15:20:19;99054.97;;;7.61;54.83
82784;BME280;72520;55.762;37.780;2024-03-25T15:23:20;99062.16;;;7.59;55.07
82784;BME280;72520;55.762;37.780;2024-03-25T15:26:23;99071.22;;;7.55;54.45
82784;BME280;72520;55.762;37.780;2024-03-25T15:29:24;99073.06;;;7.55;54.96
82784;BME280;72520;55.762;37.780;2024-03-25T15:32:25;99071.44;;;7.52;54.46
82784;BME280;72520;55.762;37.780;2024-03-25T15:35:29;99074.19;;;7.51;54.93
82784;BME280;72520;55.762;37.780;2024-03-25T15:38:33;99081.13;;;7.39;55.95
82784;BME280;72520;55.762;37.780;2024-03-25T15:41:35;99088.88;;;7.28;58.12
82784;BME280;72520;55.762;37.780;2024-03-25T15:44:36;99094.50;;;7.24;56.21
82784;BME280;72520;55.762;37.780;2024-03-25T15:47:38;99098.19;;;7.21;58.15
82784;BME280;72520;55.762;37.780;2024-03-25T15:50:42;99097.13;;;7.24;58.05
82784;BME280;72520;55.762;37.780;2024-03-25T15:53:43;99093.63;;;7.23;57.50
82784;BME280;72520;55.762;37.780;2024-03-25T15:56:46;99103.16;;;7.26;54.68
82784;BME280;72520;55.762;37.780;2024-03-25T15:59:49;99103.94;;;7.28;54.84
82784;BME280;72520;55.762;37.780;2024-03-25T16:02:51;99109.41;;;7.25;56.42
82784;BME280;72520;55.762;37.780;2024-03-25T16:05:52;99110.78;;;7.18;57.35
82784;BME280;72520;55.762;37.780;2024-03-25T16:08:53;99123.63;;;7.09;58.73
82784;BME280;72520;55.762;37.780;2024-03-25T16:11:56;99122.09;;;7.05;57.55